sensor_id;sensor_type;location;lat;lon;timestamp;P1;durP1;ratioP1;P2;durP2;ratioP2
28605;SDS011;46498;49.968;7.754;2022-10-22T00:02:57;188.85;;;18.27;;
28605;SDS011;46498;49.968;7.754;2022-10-22T00:07:58;21.25;;;13.75;;
28605;SDS011;46498;49.968;7.754;2022-10-22T00:12:59;28.77;;;15.70;;
28605;SDS011;46498;49.968;7.754;2022-10-22T00:17:59;33.88;;;17.35;;
28605;SDS011;46498;49.968;7.754;2022-10-22T00:23:01;37.70;;;16.35;;
28605;SDS011;46498;49.968;7.754;2022-10-22T00:28:02;24.40;;;12.40;;
28605;SDS011;46498;49.968;7.754;2022-10-22T00:33:04;18.37;;;9.32;;
28605;SDS011;46498;49.968;7.754;2022-10-22T00:38:05;17.00;;;7.65;;
28605;SDS011;46498;49.968;7.754;2022-10-22T00:43:09;15.07;;;7.75;;
28605;SDS011;46498;49.968;7.754;2022-10-22T00:48:15;19.48;;;6.97;;
28605;SDS011;46498;49.968;7.754;2022-10-22T00:53:22;10.90;;;6.95;;
28605;SDS011;46498;49.968;7.754;2022-10-22T00:58:27;20.12;;;6.75;;
28605;SDS011;46498;49.968;7.754;2022-10-22T01:03:32;17.80;;;6.93;;
28605;SDS011;46498;49.968;7.754;2022-10-22T01:08:54;17.48;;;6.12;;
28605;SDS011;46498;49.968;7.754;2022-10-22T01:14:49;14.32;;;6.00;;
28605;SDS011;46498;49.968;7.754;2022-10-22T01:27:18;13.27;;;5.00;;
28605;SDS011;46498;49.968;7.754;2022-10-22T01:33:55;11.25;;;4.28;;
28605;SDS011;46498;49.968;7.754;2022-10-22T01:38:59;13.27;;;4.20;;
28605;SDS011;46498;49.968;7.754;2022-10-22T01:44:01;14.20;;;4.43;;
28605;SDS011;46498;49.968;7.754;2022-10-22T01:49:22;8.63;;;3.70;;
28605;SDS011;46498;49.968;7.754;2022-10-22T01:54:44;9.13;;;3.83;;
28605;SDS011;46498;49.968;7.754;2022-10-22T02:00:10;11.12;;;4.10;;
28605;SDS011;46498;49.968;7.754;2022-10-22T02:05:21;17.52;;;4.95;;
28605;SDS011;46498;49.968;7.754;2022-10-22T02:10:27;17.73;;;4.47;;
28605;SDS011;46498;49.968;7.754;2022-10-22T02:20:33;9.60;;;4.00;;
28605;SDS011;46498;49.968;7.754;2022-10-22T02:25:37;11.38;;;4.07;;
28605;SDS011;46498;49.968;7.754;2022-10-22T02:30:41;12.15;;;4.15;;
28605;SDS011;46498;49.968;7.754;2022-10-22T02:35:46;10.15;;;4.20;;
28605;SDS011;46498;49.968;7.754;2022-10-22T02:40:49;9.00;;;3.90;;
28605;SDS011;46498;49.968;7.754;2022-10-22T02:45:50;13.25;;;4.30;;
28605;SDS011;46498;49.968;7.754;2022-10-22T02:50:51;7.78;;;3.47;;
28605;SDS011;46498;49.968;7.754;2022-10-22T02:55:52;9.77;;;3.72;;
28605;SDS011;46498;49.968;7.754;2022-10-22T03:00:53;6.43;;;3.67;;
28605;SDS011;46498;49.968;7.754;2022-10-22T03:05:54;10.95;;;3.62;;
28605;SDS011;46498;49.968;7.754;2022-10-22T03:10:55;13.85;;;4.75;;
28605;SDS011;46498;49.968;7.754;2022-10-22T03:15:55;13.90;;;5.70;;
28605;SDS011;46498;49.968;7.754;2022-10-22T03:27:32;10.05;;;3.90;;
28605;SDS011;46498;49.968;7.754;2022-10-22T03:32:36;11.20;;;4.65;;
28605;SDS011;46498;49.968;7.754;2022-10-22T03:37:37;8.50;;;4.75;;
28605;SDS011;46498;49.968;7.754;2022-10-22T03:42:39;12.05;;;5.65;;
28605;SDS011;46498;49.968;7.754;2022-10-22T03:47:41;32.05;;;6.20;;
28605;SDS011;46498;49.968;7.754;2022-10-22T03:52:43;21.25;;;6.78;;
28605;SDS011;46498;49.968;7.754;2022-10-22T03:57:43;15.27;;;7.60;;
28605;SDS011;46498;49.968;7.754;2022-10-22T04:02:44;14.57;;;6.78;;
28605;SDS011;46498;49.968;7.754;2022-10-22T04:07:45;14.35;;;7.32;;
28605;SDS011;46498;49.968;7.754;2022-10-22T04:12:46;13.27;;;6.75;;
28605;SDS011;46498;49.968;7.754;2022-10-22T04:17:47;15.52;;;7.28;;
28605;SDS011;46498;49.968;7.754;2022-10-22T04:22:48;15.35;;;6.97;;
28605;SDS011;46498;49.968;7.754;2022-10-22T04:27:49;14.13;;;7.28;;
28605;SDS011;46498;49.968;7.754;2022-10-22T04:32:50;13.60;;;6.57;;
28605;SDS011;46498;49.968;7.754;2022-10-22T04:37:51;9.93;;;6.78;;
28605;SDS011;46498;49.968;7.754;2022-10-22T04:42:52;12.48;;;5.93;;
28605;SDS011;46498;49.968;7.754;2022-10-22T04:47:53;11.23;;;5.82;;
28605;SDS011;46498;49.968;7.754;2022-10-22T04:52:53;13.80;;;5.65;;
28605;SDS011;46498;49.968;7.754;2022-10-22T04:57:55;9.90;;;5.70;;
28605;SDS011;46498;49.968;7.754;2022-10-22T05:02:55;12.63;;;5.25;;
28605;SDS011;46498;49.968;7.754;2022-10-22T05:07:56;12.93;;;6.05;;
28605;SDS011;46498;49.968;7.754;2022-10-22T05:12:57;8.02;;;4.85;;
28605;SDS011;46498;49.968;7.754;2022-10-22T05:17:58;15.38;;;5.03;;
28605;SDS011;46498;49.968;7.754;2022-10-22T05:22:59;11.52;;;4.93;;
28605;SDS011;46498;49.968;7.754;2022-10-22T05:27:59;16.42;;;4.85;;
28605;SDS011;46498;49.968;7.754;2022-10-22T05:33:01;9.80;;;4.47;;
28605;SDS011;46498;49.968;7.754;2022-10-22T05:38:02;9.43;;;4.65;;
28605;SDS011;46498;49.968;7.754;2022-10-22T05:43:03;15.65;;;5.37;;
28605;SDS011;46498;49.968;7.754;2022-10-22T05:48:03;11.45;;;4.95;;
28605;SDS011;46498;49.968;7.754;2022-10-22T05:53:04;9.05;;;4.03;;
28605;SDS011;46498;49.968;7.754;2022-10-22T05:58:05;8.73;;;4.50;;
28605;SDS011;46498;49.968;7.754;2022-10-22T06:03:06;10.20;;;4.82;;
28605;SDS011;46498;49.968;7.754;2022-10-22T06:08:08;11.38;;;4.40;;
28605;SDS011;46498;49.968;7.754;2022-10-22T06:13:19;11.18;;;4.80;;
28605;SDS011;46498;49.968;7.754;2022-10-22T06:18:20;15.35;;;5.07;;
28605;SDS011;46498;49.968;7.754;2022-10-22T06:23:21;14.75;;;4.60;;
28605;SDS011;46498;49.968;7.754;2022-10-22T06:28:21;12.65;;;4.70;;
28605;SDS011;46498;49.968;7.754;2022-10-22T06:33:26;13.73;;;4.87;;
28605;SDS011;46498;49.968;7.754;2022-10-22T06:38:27;9.30;;;5.03;;
28605;SDS011;46498;49.968;7.754;2022-10-22T06:43:28;10.90;;;6.37;;
28605;SDS011;46498;49.968;7.754;2022-10-22T06:48:29;10.10;;;5.25;;
28605;SDS011;46498;49.968;7.754;2022-10-22T06:53:30;13.23;;;5.70;;
28605;SDS011;46498;49.968;7.754;2022-10-22T06:58:31;7.87;;;5.35;;
28605;SDS011;46498;49.968;7.754;2022-10-22T07:03:32;6.93;;;4.65;;
28605;SDS011;46498;49.968;7.754;2022-10-22T07:08:34;11.90;;;4.93;;
28605;SDS011;46498;49.968;7.754;2022-10-22T07:13:35;7.40;;;4.20;;
28605;SDS011;46498;49.968;7.754;2022-10-22T07:18:36;9.88;;;4.53;;
28605;SDS011;46498;49.968;7.754;2022-10-22T07:23:38;16.85;;;4.47;;
28605;SDS011;46498;49.968;7.754;2022-10-22T07:28:39;9.40;;;3.47;;
28605;SDS011;46498;49.968;7.754;2022-10-22T07:33:41;6.97;;;2.58;;
28605;SDS011;46498;49.968;7.754;2022-10-22T07:38:45;13.52;;;2.60;;
28605;SDS011;46498;49.968;7.754;2022-10-22T07:43:48;8.88;;;2.83;;
28605;SDS011;46498;49.968;7.754;2022-10-22T07:48:49;14.93;;;3.58;;
28605;SDS011;46498;49.968;7.754;2022-10-22T07:53:50;10.48;;;3.00;;
28605;SDS011;46498;49.968;7.754;2022-10-22T07:58:51;8.65;;;2.20;;
28605;SDS011;46498;49.968;7.754;2022-10-22T08:03:51;8.43;;;2.20;;
28605;SDS011;46498;49.968;7.754;2022-10-22T08:08:53;8.38;;;2.92;;
28605;SDS011;46498;49.968;7.754;2022-10-22T08:13:54;6.22;;;1.85;;
28605;SDS011;46498;49.968;7.754;2022-10-22T08:18:55;7.53;;;2.17;;
28605;SDS011;46498;49.968;7.754;2022-10-22T08:23:56;7.60;;;1.85;;
28605;SDS011;46498;49.968;7.754;2022-10-22T08:28:57;8.43;;;1.70;;
28605;SDS011;46498;49.968;7.754;2022-10-22T08:33:58;4.25;;;1.40;;
28605;SDS011;46498;49.968;7.754;2022-10-22T08:38:58;11.63;;;1.87;;
28605;SDS011;46498;49.968;7.754;2022-10-22T08:44:47;8.85;;;1.58;;
28605;SDS011;46498;49.968;7.754;2022-10-22T08:50:14;4.62;;;0.93;;
28605;SDS011;46498;49.968;7.754;2022-10-22T08:55:19;6.95;;;1.20;;
28605;SDS011;46498;49.968;7.754;2022-10-22T09:06:56;7.03;;;1.48;;
28605;SDS011;46498;49.968;7.754;2022-10-22T09:11:58;6.35;;;1.23;;
28605;SDS011;46498;49.968;7.754;2022-10-22T09:17:08;7.80;;;1.40;;
28605;SDS011;46498;49.968;7.754;2022-10-22T09:30:33;5.93;;;0.90;;
28605;SDS011;46498;49.968;7.754;2022-10-22T09:35:46;5.68;;;1.23;;
28605;SDS011;46498;49.968;7.754;2022-10-22T09:40:52;5.72;;;1.50;;
28605;SDS011;46498;49.968;7.754;2022-10-22T09:45:55;4.78;;;1.02;;
28605;SDS011;46498;49.968;7.754;2022-10-22T09:51:07;6.35;;;1.35;;
28605;SDS011;46498;49.968;7.754;2022-10-22T10:01:35;7.33;;;1.20;;
28605;SDS011;46498;49.968;7.754;2022-10-22T10:06:39;1.92;;;1.05;;
28605;SDS011;46498;49.968;7.754;2022-10-22T10:11:42;5.20;;;1.00;;
28605;SDS011;46498;49.968;7.754;2022-10-22T10:17:10;4.30;;;1.10;;
28605;SDS011;46498;49.968;7.754;2022-10-22T10:33:27;6.32;;;1.10;;
28605;SDS011;46498;49.968;7.754;2022-10-22T10:40:41;6.87;;;1.20;;
28605;SDS011;46498;49.968;7.754;2022-10-22T10:45:55;8.20;;;1.62;;
28605;SDS011;46498;49.968;7.754;2022-10-22T10:58:18;4.45;;;1.02;;
28605;SDS011;46498;49.968;7.754;2022-10-22T11:03:32;5.28;;;0.82;;
28605;SDS011;46498;49.968;7.754;2022-10-22T11:08:43;8.13;;;1.42;;
28605;SDS011;46498;49.968;7.754;2022-10-22T11:14:02;5.03;;;1.20;;
28605;SDS011;46498;49.968;7.754;2022-10-22T11:19:24;7.97;;;1.20;;
28605;SDS011;46498;49.968;7.754;2022-10-22T11:24:53;5.25;;;1.20;;
28605;SDS011;46498;49.968;7.754;2022-10-22T11:36:44;8.15;;;1.52;;
28605;SDS011;46498;49.968;7.754;2022-10-22T11:41:46;8.27;;;1.08;;
28605;SDS011;46498;49.968;7.754;2022-10-22T11:58:19;7.25;;;1.12;;
28605;SDS011;46498;49.968;7.754;2022-10-22T12:03:44;11.70;;;1.42;;
28605;SDS011;46498;49.968;7.754;2022-10-22T12:09:33;7.10;;;1.27;;
28605;SDS011;46498;49.968;7.754;2022-10-22T12:14:58;8.02;;;1.52;;
28605;SDS011;46498;49.968;7.754;2022-10-22T12:20:03;9.13;;;1.40;;
28605;SDS011;46498;49.968;7.754;2022-10-22T12:25:15;9.73;;;1.12;;
28605;SDS011;46498;49.968;7.754;2022-10-22T12:30:22;7.85;;;1.77;;
28605;SDS011;46498;49.968;7.754;2022-10-22T12:35:29;9.73;;;1.50;;
28605;SDS011;46498;49.968;7.754;2022-10-22T12:40:43;7.47;;;1.42;;
28605;SDS011;46498;49.968;7.754;2022-10-22T12:45:49;11.68;;;1.85;;
28605;SDS011;46498;49.968;7.754;2022-10-22T12:50:51;8.75;;;1.37;;
28605;SDS011;46498;49.968;7.754;2022-10-22T12:56:01;9.57;;;1.23;;
28605;SDS011;46498;49.968;7.754;2022-10-22T13:01:05;12.90;;;2.00;;
28605;SDS011;46498;49.968;7.754;2022-10-22T13:06:10;8.98;;;1.48;;
28605;SDS011;46498;49.968;7.754;2022-10-22T13:11:23;8.25;;;1.52;;
28605;SDS011;46498;49.968;7.754;2022-10-22T13:16:32;7.85;;;1.20;;
28605;SDS011;46498;49.968;7.754;2022-10-22T13:21:34;5.00;;;1.45;;
28605;SDS011;46498;49.968;7.754;2022-10-22T13:26:38;13.40;;;1.90;;
28605;SDS011;46498;49.968;7.754;2022-10-22T13:31:43;9.43;;;1.17;;
28605;SDS011;46498;49.968;7.754;2022-10-22T13:36:46;5.32;;;1.10;;
28605;SDS011;46498;49.968;7.754;2022-10-22T13:41:48;10.30;;;1.43;;
28605;SDS011;46498;49.968;7.754;2022-10-22T13:46:49;6.90;;;1.50;;
28605;SDS011;46498;49.968;7.754;2022-10-22T13:51:50;3.28;;;1.05;;
28605;SDS011;46498;49.968;7.754;2022-10-22T13:56:52;9.13;;;1.80;;
28605;SDS011;46498;49.968;7.754;2022-10-22T14:01:53;4.90;;;1.55;;
28605;SDS011;46498;49.968;7.754;2022-10-22T14:06:55;11.70;;;2.22;;
28605;SDS011;46498;49.968;7.754;2022-10-22T14:12:00;7.95;;;1.55;;
28605;SDS011;46498;49.968;7.754;2022-10-22T14:17:01;12.70;;;1.40;;
28605;SDS011;46498;49.968;7.754;2022-10-22T14:22:01;12.02;;;1.75;;
28605;SDS011;46498;49.968;7.754;2022-10-22T14:27:02;6.70;;;1.40;;
28605;SDS011;46498;49.968;7.754;2022-10-22T14:32:05;5.32;;;1.40;;
28605;SDS011;46498;49.968;7.754;2022-10-22T14:37:17;10.13;;;1.60;;
28605;SDS011;46498;49.968;7.754;2022-10-22T14:42:19;10.15;;;1.60;;
28605;SDS011;46498;49.968;7.754;2022-10-22T14:47:20;11.57;;;2.50;;
28605;SDS011;46498;49.968;7.754;2022-10-22T14:52:21;10.80;;;1.77;;
28605;SDS011;46498;49.968;7.754;2022-10-22T14:57:21;7.50;;;1.30;;
28605;SDS011;46498;49.968;7.754;2022-10-22T15:02:22;8.07;;;1.10;;
28605;SDS011;46498;49.968;7.754;2022-10-22T15:07:23;9.57;;;1.67;;
28605;SDS011;46498;49.968;7.754;2022-10-22T15:12:24;5.90;;;1.20;;
28605;SDS011;46498;49.968;7.754;2022-10-22T15:17:25;9.82;;;1.52;;
28605;SDS011;46498;49.968;7.754;2022-10-22T15:22:26;5.57;;;1.20;;
28605;SDS011;46498;49.968;7.754;2022-10-22T15:27:28;9.93;;;1.67;;
28605;SDS011;46498;49.968;7.754;2022-10-22T15:32:30;10.68;;;1.55;;
28605;SDS011;46498;49.968;7.754;2022-10-22T15:37:33;8.05;;;1.35;;
28605;SDS011;46498;49.968;7.754;2022-10-22T15:42:33;10.80;;;1.02;;
28605;SDS011;46498;49.968;7.754;2022-10-22T15:47:34;10.40;;;1.10;;
28605;SDS011;46498;49.968;7.754;2022-10-22T15:52:35;5.15;;;1.00;;
28605;SDS011;46498;49.968;7.754;2022-10-22T15:57:36;7.75;;;1.15;;
28605;SDS011;46498;49.968;7.754;2022-10-22T16:02:38;8.98;;;1.40;;
28605;SDS011;46498;49.968;7.754;2022-10-22T16:07:39;8.18;;;1.17;;
28605;SDS011;46498;49.968;7.754;2022-10-22T16:12:40;7.35;;;0.95;;
28605;SDS011;46498;49.968;7.754;2022-10-22T16:17:42;10.45;;;1.23;;
28605;SDS011;46498;49.968;7.754;2022-10-22T16:22:43;12.05;;;2.25;;
28605;SDS011;46498;49.968;7.754;2022-10-22T16:27:47;20.17;;;3.15;;
28605;SDS011;46498;49.968;7.754;2022-10-22T16:32:49;16.05;;;4.50;;
28605;SDS011;46498;49.968;7.754;2022-10-22T16:37:52;13.93;;;4.40;;
28605;SDS011;46498;49.968;7.754;2022-10-22T16:42:53;15.40;;;5.55;;
28605;SDS011;46498;49.968;7.754;2022-10-22T16:47:54;16.83;;;4.43;;
28605;SDS011;46498;49.968;7.754;2022-10-22T16:52:54;11.57;;;4.25;;
28605;SDS011;46498;49.968;7.754;2022-10-22T16:57:55;17.77;;;3.87;;
28605;SDS011;46498;49.968;7.754;2022-10-22T17:02:56;15.68;;;2.58;;
28605;SDS011;46498;49.968;7.754;2022-10-22T17:07:57;14.07;;;2.67;;
28605;SDS011;46498;49.968;7.754;2022-10-22T17:12:58;16.55;;;3.55;;
28605;SDS011;46498;49.968;7.754;2022-10-22T17:17:59;13.48;;;4.30;;
28605;SDS011;46498;49.968;7.754;2022-10-22T17:23:00;22.25;;;3.90;;
28605;SDS011;46498;49.968;7.754;2022-10-22T17:28:01;8.95;;;2.33;;
28605;SDS011;46498;49.968;7.754;2022-10-22T17:33:01;21.83;;;4.55;;
28605;SDS011;46498;49.968;7.754;2022-10-22T17:38:02;10.65;;;3.08;;
28605;SDS011;46498;49.968;7.754;2022-10-22T17:43:03;16.00;;;3.35;;
28605;SDS011;46498;49.968;7.754;2022-10-22T17:48:04;17.20;;;2.60;;
28605;SDS011;46498;49.968;7.754;2022-10-22T17:53:05;7.70;;;2.20;;
28605;SDS011;46498;49.968;7.754;2022-10-22T17:58:06;13.93;;;4.22;;
28605;SDS011;46498;49.968;7.754;2022-10-22T18:03:07;15.07;;;3.28;;
28605;SDS011;46498;49.968;7.754;2022-10-22T18:08:08;15.88;;;2.65;;
28605;SDS011;46498;49.968;7.754;2022-10-22T18:13:09;15.40;;;4.25;;
28605;SDS011;46498;49.968;7.754;2022-10-22T18:18:10;10.25;;;4.35;;
28605;SDS011;46498;49.968;7.754;2022-10-22T18:23:10;18.02;;;7.12;;
28605;SDS011;46498;49.968;7.754;2022-10-22T18:28:16;19.40;;;5.37;;
28605;SDS011;46498;49.968;7.754;2022-10-22T18:33:18;11.90;;;3.75;;
28605;SDS011;46498;49.968;7.754;2022-10-22T18:38:23;9.98;;;2.75;;
28605;SDS011;46498;49.968;7.754;2022-10-22T18:43:24;11.07;;;2.78;;
28605;SDS011;46498;49.968;7.754;2022-10-22T18:48:25;8.68;;;2.30;;
28605;SDS011;46498;49.968;7.754;2022-10-22T18:53:27;6.15;;;2.30;;
28605;SDS011;46498;49.968;7.754;2022-10-22T18:58:28;7.45;;;2.00;;
28605;SDS011;46498;49.968;7.754;2022-10-22T19:03:29;10.20;;;1.83;;
28605;SDS011;46498;49.968;7.754;2022-10-22T19:08:30;11.18;;;1.80;;
28605;SDS011;46498;49.968;7.754;2022-10-22T19:13:31;13.55;;;2.78;;
28605;SDS011;46498;49.968;7.754;2022-10-22T19:18:32;12.45;;;2.70;;
28605;SDS011;46498;49.968;7.754;2022-10-22T19:23:35;5.75;;;2.05;;
28605;SDS011;46498;49.968;7.754;2022-10-22T19:28:36;5.70;;;2.95;;
28605;SDS011;46498;49.968;7.754;2022-10-22T19:33:38;6.68;;;2.22;;
28605;SDS011;46498;49.968;7.754;2022-10-22T19:38:40;14.07;;;2.85;;
28605;SDS011;46498;49.968;7.754;2022-10-22T19:48:44;16.92;;;3.90;;
28605;SDS011;46498;49.968;7.754;2022-10-22T19:53:45;15.18;;;4.65;;
28605;SDS011;46498;49.968;7.754;2022-10-22T19:58:47;8.00;;;2.85;;
28605;SDS011;46498;49.968;7.754;2022-10-22T20:03:48;11.85;;;3.30;;
28605;SDS011;46498;49.968;7.754;2022-10-22T20:08:49;11.68;;;3.10;;
28605;SDS011;46498;49.968;7.754;2022-10-22T20:13:55;13.48;;;2.85;;
28605;SDS011;46498;49.968;7.754;2022-10-22T20:18:58;10.37;;;3.67;;
28605;SDS011;46498;49.968;7.754;2022-10-22T20:24:01;13.25;;;2.83;;
28605;SDS011;46498;49.968;7.754;2022-10-22T20:29:02;10.55;;;2.47;;
28605;SDS011;46498;49.968;7.754;2022-10-22T20:34:03;15.25;;;3.58;;
28605;SDS011;46498;49.968;7.754;2022-10-22T20:39:05;16.25;;;3.85;;
28605;SDS011;46498;49.968;7.754;2022-10-22T20:44:12;9.85;;;3.17;;
28605;SDS011;46498;49.968;7.754;2022-10-22T20:49:16;9.73;;;3.05;;
28605;SDS011;46498;49.968;7.754;2022-10-22T20:54:20;15.73;;;5.15;;
28605;SDS011;46498;49.968;7.754;2022-10-22T20:59:20;5.87;;;2.35;;
28605;SDS011;46498;49.968;7.754;2022-10-22T21:04:22;9.93;;;1.85;;
28605;SDS011;46498;49.968;7.754;2022-10-22T21:09:23;11.23;;;1.70;;
28605;SDS011;46498;49.968;7.754;2022-10-22T21:14:24;7.32;;;2.25;;
28605;SDS011;46498;49.968;7.754;2022-10-22T21:19:25;11.18;;;3.20;;
28605;SDS011;46498;49.968;7.754;2022-10-22T21:24:26;9.30;;;2.25;;
28605;SDS011;46498;49.968;7.754;2022-10-22T21:29:27;11.12;;;2.80;;
28605;SDS011;46498;49.968;7.754;2022-10-22T21:34:28;17.70;;;8.77;;
28605;SDS011;46498;49.968;7.754;2022-10-22T21:39:29;9.77;;;4.95;;
28605;SDS011;46498;49.968;7.754;2022-10-22T21:44:29;9.50;;;3.58;;
28605;SDS011;46498;49.968;7.754;2022-10-22T21:49:30;13.40;;;4.78;;
28605;SDS011;46498;49.968;7.754;2022-10-22T21:54:31;17.55;;;4.55;;
28605;SDS011;46498;49.968;7.754;2022-10-22T21:59:34;14.13;;;4.60;;
28605;SDS011;46498;49.968;7.754;2022-10-22T22:04:35;13.45;;;2.97;;
28605;SDS011;46498;49.968;7.754;2022-10-22T22:09:36;8.73;;;1.73;;
28605;SDS011;46498;49.968;7.754;2022-10-22T22:14:37;5.93;;;1.50;;
28605;SDS011;46498;49.968;7.754;2022-10-22T22:19:38;7.30;;;1.35;;
28605;SDS011;46498;49.968;7.754;2022-10-22T22:24:39;7.60;;;1.10;;
28605;SDS011;46498;49.968;7.754;2022-10-22T22:29:40;5.78;;;1.60;;
28605;SDS011;46498;49.968;7.754;2022-10-22T22:34:41;5.47;;;1.60;;
28605;SDS011;46498;49.968;7.754;2022-10-22T22:39:42;11.35;;;1.50;;
28605;SDS011;46498;49.968;7.754;2022-10-22T22:44:42;8.55;;;1.17;;
28605;SDS011;46498;49.968;7.754;2022-10-22T22:49:43;13.35;;;1.87;;
28605;SDS011;46498;49.968;7.754;2022-10-22T22:54:45;9.43;;;2.42;;
28605;SDS011;46498;49.968;7.754;2022-10-22T22:59:50;9.38;;;1.90;;
28605;SDS011;46498;49.968;7.754;2022-10-22T23:04:51;11.80;;;1.95;;
28605;SDS011;46498;49.968;7.754;2022-10-22T23:09:52;13.00;;;1.90;;
28605;SDS011;46498;49.968;7.754;2022-10-22T23:14:52;6.93;;;1.45;;
28605;SDS011;46498;49.968;7.754;2022-10-22T23:19:53;9.95;;;1.98;;
28605;SDS011;46498;49.968;7.754;2022-10-22T23:24:54;11.75;;;2.00;;
28605;SDS011;46498;49.968;7.754;2022-10-22T23:29:55;8.27;;;2.85;;
28605;SDS011;46498;49.968;7.754;2022-10-22T23:34:56;12.70;;;3.25;;
28605;SDS011;46498;49.968;7.754;2022-10-22T23:39:57;11.00;;;3.55;;
28605;SDS011;46498;49.968;7.754;2022-10-22T23:44:58;14.90;;;4.82;;
28605;SDS011;46498;49.968;7.754;2022-10-22T23:49:58;9.05;;;3.97;;
28605;SDS011;46498;49.968;7.754;2022-10-22T23:54:59;11.60;;;4.03;;
